sensor_id;sensor_type;location;lat;lon;timestamp;P1;durP1;ratioP1;P2;durP2;ratioP2
76065;SDS011;64763;48.928;8.474;2023-11-21T00:01:50;4.72;;;1.00;;
76065;SDS011;64763;48.928;8.474;2023-11-21T00:04:15;2.28;;;1.10;;
76065;SDS011;64763;48.928;8.474;2023-11-21T00:06:40;2.00;;;1.02;;
76065;SDS011;64763;48.928;8.474;2023-11-21T00:09:06;1.38;;;0.70;;
76065;SDS011;64763;48.928;8.474;2023-11-21T00:11:33;2.38;;;1.10;;
76065;SDS011;64763;48.928;8.474;2023-11-21T00:13:58;2.90;;;1.02;;
76065;SDS011;64763;48.928;8.474;2023-11-21T00:16:24;5.07;;;1.33;;
76065;SDS011;64763;48.928;8.474;2023-11-21T00:18:50;1.58;;;1.05;;
76065;SDS011;64763;48.928;8.474;2023-11-21T00:21:16;2.72;;;0.95;;
76065;SDS011;64763;48.928;8.474;2023-11-21T00:23:41;4.50;;;1.20;;
76065;SDS011;64763;48.928;8.474;2023-11-21T00:26:07;3.08;;;0.90;;
76065;SDS011;64763;48.928;8.474;2023-11-21T00:28:32;3.80;;;1.00;;
76065;SDS011;64763;48.928;8.474;2023-11-21T00:30:58;1.98;;;0.90;;
76065;SDS011;64763;48.928;8.474;2023-11-21T00:33:23;2.33;;;1.10;;
76065;SDS011;64763;48.928;8.474;2023-11-21T00:35:50;1.00;;;0.90;;
76065;SDS011;64763;48.928;8.474;2023-11-21T00:38:15;1.27;;;0.88;;
76065;SDS011;64763;48.928;8.474;2023-11-21T00:40:44;1.08;;;0.85;;
76065;SDS011;64763;48.928;8.474;2023-11-21T00:43:10;1.90;;;0.93;;
76065;SDS011;64763;48.928;8.474;2023-11-21T00:45:35;1.58;;;0.93;;
76065;SDS011;64763;48.928;8.474;2023-11-21T00:48:01;1.88;;;0.80;;
76065;SDS011;64763;48.928;8.474;2023-11-21T00:50:27;1.23;;;0.75;;
76065;SDS011;64763;48.928;8.474;2023-11-21T00:52:55;1.33;;;0.77;;
76065;SDS011;64763;48.928;8.474;2023-11-21T00:55:21;0.98;;;0.82;;
76065;SDS011;64763;48.928;8.474;2023-11-21T00:57:46;2.40;;;1.00;;
76065;SDS011;64763;48.928;8.474;2023-11-21T01:00:11;1.92;;;1.13;;
76065;SDS011;64763;48.928;8.474;2023-11-21T01:02:43;2.53;;;1.00;;
76065;SDS011;64763;48.928;8.474;2023-11-21T01:05:09;3.40;;;0.88;;
76065;SDS011;64763;48.928;8.474;2023-11-21T01:07:35;1.35;;;0.82;;
76065;SDS011;64763;48.928;8.474;2023-11-21T01:10:02;2.10;;;1.00;;
76065;SDS011;64763;48.928;8.474;2023-11-21T01:12:28;2.38;;;1.05;;
76065;SDS011;64763;48.928;8.474;2023-11-21T01:14:53;3.33;;;1.08;;
76065;SDS011;64763;48.928;8.474;2023-11-21T01:17:19;1.70;;;1.10;;
76065;SDS011;64763;48.928;8.474;2023-11-21T01:19:44;1.85;;;1.00;;
76065;SDS011;64763;48.928;8.474;2023-11-21T01:22:10;3.35;;;1.10;;
76065;SDS011;64763;48.928;8.474;2023-11-21T01:24:37;3.17;;;1.10;;
76065;SDS011;64763;48.928;8.474;2023-11-21T01:27:02;2.03;;;1.05;;
76065;SDS011;64763;48.928;8.474;2023-11-21T01:29:29;1.13;;;0.75;;
76065;SDS011;64763;48.928;8.474;2023-11-21T01:31:55;1.73;;;0.98;;
76065;SDS011;64763;48.928;8.474;2023-11-21T01:34:22;2.97;;;1.23;;
76065;SDS011;64763;48.928;8.474;2023-11-21T01:36:48;1.73;;;0.80;;
76065;SDS011;64763;48.928;8.474;2023-11-21T01:39:13;1.33;;;0.77;;
76065;SDS011;64763;48.928;8.474;2023-11-21T01:41:40;2.30;;;0.90;;
76065;SDS011;64763;48.928;8.474;2023-11-21T01:44:06;2.75;;;1.42;;
76065;SDS011;64763;48.928;8.474;2023-11-21T01:46:34;1.67;;;0.95;;
76065;SDS011;64763;48.928;8.474;2023-11-21T01:48:59;3.25;;;1.00;;
76065;SDS011;64763;48.928;8.474;2023-11-21T01:51:25;1.83;;;0.70;;
76065;SDS011;64763;48.928;8.474;2023-11-21T01:53:51;1.00;;;0.90;;
76065;SDS011;64763;48.928;8.474;2023-11-21T01:56:16;3.28;;;1.20;;
76065;SDS011;64763;48.928;8.474;2023-11-21T01:58:42;1.88;;;1.05;;
76065;SDS011;64763;48.928;8.474;2023-11-21T02:01:08;5.57;;;1.80;;
76065;SDS011;64763;48.928;8.474;2023-11-21T02:03:34;1.40;;;1.02;;
76065;SDS011;64763;48.928;8.474;2023-11-21T02:06:01;2.08;;;0.90;;
76065;SDS011;64763;48.928;8.474;2023-11-21T02:08:26;3.83;;;1.20;;
76065;SDS011;64763;48.928;8.474;2023-11-21T02:10:52;5.35;;;0.82;;
76065;SDS011;64763;48.928;8.474;2023-11-21T02:13:17;2.08;;;0.90;;
76065;SDS011;64763;48.928;8.474;2023-11-21T02:15:42;1.42;;;0.90;;
76065;SDS011;64763;48.928;8.474;2023-11-21T02:18:08;1.63;;;0.85;;
76065;SDS011;64763;48.928;8.474;2023-11-21T02:20:35;1.63;;;0.90;;
76065;SDS011;64763;48.928;8.474;2023-11-21T02:23:02;1.90;;;0.85;;
76065;SDS011;64763;48.928;8.474;2023-11-21T02:25:28;1.58;;;0.85;;
76065;SDS011;64763;48.928;8.474;2023-11-21T02:27:54;1.85;;;1.10;;
76065;SDS011;64763;48.928;8.474;2023-11-21T02:30:21;3.30;;;0.88;;
76065;SDS011;64763;48.928;8.474;2023-11-21T02:32:47;1.70;;;0.85;;
76065;SDS011;64763;48.928;8.474;2023-11-21T02:35:13;1.33;;;1.10;;
76065;SDS011;64763;48.928;8.474;2023-11-21T02:37:38;1.27;;;0.90;;
76065;SDS011;64763;48.928;8.474;2023-11-21T02:40:05;4.05;;;1.05;;
76065;SDS011;64763;48.928;8.474;2023-11-21T02:42:32;1.85;;;1.10;;
76065;SDS011;64763;48.928;8.474;2023-11-21T02:44:57;1.80;;;1.05;;
76065;SDS011;64763;48.928;8.474;2023-11-21T02:47:22;4.00;;;1.05;;
76065;SDS011;64763;48.928;8.474;2023-11-21T02:49:48;1.38;;;1.10;;
76065;SDS011;64763;48.928;8.474;2023-11-21T02:52:13;2.90;;;1.33;;
76065;SDS011;64763;48.928;8.474;2023-11-21T02:54:39;3.40;;;1.27;;
76065;SDS011;64763;48.928;8.474;2023-11-21T02:57:04;1.45;;;0.88;;
76065;SDS011;64763;48.928;8.474;2023-11-21T02:59:30;3.67;;;1.10;;
76065;SDS011;64763;48.928;8.474;2023-11-21T03:01:56;1.27;;;1.00;;
76065;SDS011;64763;48.928;8.474;2023-11-21T03:04:22;1.52;;;1.15;;
76065;SDS011;64763;48.928;8.474;2023-11-21T03:06:47;3.97;;;1.40;;
76065;SDS011;64763;48.928;8.474;2023-11-21T03:09:12;2.10;;;1.38;;
76065;SDS011;64763;48.928;8.474;2023-11-21T03:11:38;1.83;;;1.27;;
76065;SDS011;64763;48.928;8.474;2023-11-21T03:14:03;2.33;;;1.48;;
76065;SDS011;64763;48.928;8.474;2023-11-21T03:16:30;3.35;;;1.42;;
76065;SDS011;64763;48.928;8.474;2023-11-21T03:18:56;2.55;;;1.52;;
76065;SDS011;64763;48.928;8.474;2023-11-21T03:21:22;4.25;;;1.33;;
76065;SDS011;64763;48.928;8.474;2023-11-21T03:23:47;2.70;;;1.38;;
76065;SDS011;64763;48.928;8.474;2023-11-21T03:26:12;5.25;;;1.75;;
76065;SDS011;64763;48.928;8.474;2023-11-21T03:28:38;3.88;;;1.50;;
76065;SDS011;64763;48.928;8.474;2023-11-21T03:31:03;2.65;;;1.42;;
76065;SDS011;64763;48.928;8.474;2023-11-21T03:33:29;2.83;;;1.30;;
76065;SDS011;64763;48.928;8.474;2023-11-21T03:35:54;2.40;;;1.45;;
76065;SDS011;64763;48.928;8.474;2023-11-21T03:38:19;3.35;;;1.65;;
76065;SDS011;64763;48.928;8.474;2023-11-21T03:40:45;1.98;;;1.10;;
76065;SDS011;64763;48.928;8.474;2023-11-21T03:43:10;3.58;;;1.75;;
76065;SDS011;64763;48.928;8.474;2023-11-21T03:45:36;2.45;;;1.10;;
76065;SDS011;64763;48.928;8.474;2023-11-21T03:48:01;2.67;;;1.30;;
76065;SDS011;64763;48.928;8.474;2023-11-21T03:50:28;2.65;;;1.50;;
76065;SDS011;64763;48.928;8.474;2023-11-21T03:52:54;2.90;;;1.30;;
76065;SDS011;64763;48.928;8.474;2023-11-21T03:55:19;1.60;;;1.05;;
76065;SDS011;64763;48.928;8.474;2023-11-21T03:57:44;3.28;;;1.10;;
76065;SDS011;64763;48.928;8.474;2023-11-21T04:00:10;2.80;;;1.00;;
76065;SDS011;64763;48.928;8.474;2023-11-21T04:02:36;1.42;;;1.00;;
76065;SDS011;64763;48.928;8.474;2023-11-21T04:05:01;1.77;;;1.02;;
76065;SDS011;64763;48.928;8.474;2023-11-21T04:07:26;3.13;;;1.20;;
76065;SDS011;64763;48.928;8.474;2023-11-21T04:09:52;2.22;;;0.95;;
76065;SDS011;64763;48.928;8.474;2023-11-21T04:12:18;2.70;;;1.13;;
76065;SDS011;64763;48.928;8.474;2023-11-21T04:14:44;2.28;;;1.25;;
76065;SDS011;64763;48.928;8.474;2023-11-21T04:17:09;3.90;;;1.75;;
76065;SDS011;64763;48.928;8.474;2023-11-21T04:19:34;2.05;;;1.30;;
76065;SDS011;64763;48.928;8.474;2023-11-21T04:22:00;2.20;;;1.20;;
76065;SDS011;64763;48.928;8.474;2023-11-21T04:24:28;4.10;;;1.67;;
76065;SDS011;64763;48.928;8.474;2023-11-21T04:26:53;1.77;;;1.30;;
76065;SDS011;64763;48.928;8.474;2023-11-21T04:29:19;2.92;;;1.33;;
76065;SDS011;64763;48.928;8.474;2023-11-21T04:31:44;4.00;;;1.58;;
76065;SDS011;64763;48.928;8.474;2023-11-21T04:34:09;3.42;;;1.33;;
76065;SDS011;64763;48.928;8.474;2023-11-21T04:36:34;3.80;;;1.67;;
76065;SDS011;64763;48.928;8.474;2023-11-21T04:39:00;3.42;;;1.60;;
76065;SDS011;64763;48.928;8.474;2023-11-21T04:41:25;3.33;;;1.63;;
76065;SDS011;64763;48.928;8.474;2023-11-21T04:43:51;2.80;;;1.58;;
76065;SDS011;64763;48.928;8.474;2023-11-21T04:46:16;2.33;;;1.50;;
76065;SDS011;64763;48.928;8.474;2023-11-21T04:48:41;4.00;;;1.73;;
76065;SDS011;64763;48.928;8.474;2023-11-21T04:51:07;4.50;;;1.80;;
76065;SDS011;64763;48.928;8.474;2023-11-21T04:53:32;3.17;;;1.75;;
76065;SDS011;64763;48.928;8.474;2023-11-21T04:55:57;4.40;;;1.40;;
76065;SDS011;64763;48.928;8.474;2023-11-21T04:58:23;2.45;;;1.45;;
76065;SDS011;64763;48.928;8.474;2023-11-21T05:00:49;4.95;;;2.00;;
76065;SDS011;64763;48.928;8.474;2023-11-21T05:03:14;4.20;;;1.88;;
76065;SDS011;64763;48.928;8.474;2023-11-21T05:05:40;2.70;;;1.45;;
76065;SDS011;64763;48.928;8.474;2023-11-21T05:08:05;2.95;;;1.75;;
76065;SDS011;64763;48.928;8.474;2023-11-21T05:10:30;3.17;;;1.63;;
76065;SDS011;64763;48.928;8.474;2023-11-21T05:12:56;3.38;;;1.83;;
76065;SDS011;64763;48.928;8.474;2023-11-21T05:15:21;3.60;;;1.67;;
76065;SDS011;64763;48.928;8.474;2023-11-21T05:17:48;2.90;;;1.63;;
76065;SDS011;64763;48.928;8.474;2023-11-21T05:20:15;3.22;;;1.77;;
76065;SDS011;64763;48.928;8.474;2023-11-21T05:22:46;3.30;;;1.85;;
76065;SDS011;64763;48.928;8.474;2023-11-21T05:25:13;2.58;;;1.55;;
76065;SDS011;64763;48.928;8.474;2023-11-21T05:27:38;6.20;;;2.33;;
76065;SDS011;64763;48.928;8.474;2023-11-21T05:30:04;4.25;;;2.03;;
76065;SDS011;64763;48.928;8.474;2023-11-21T05:32:31;4.43;;;2.10;;
76065;SDS011;64763;48.928;8.474;2023-11-21T05:34:57;3.35;;;1.70;;
76065;SDS011;64763;48.928;8.474;2023-11-21T05:37:22;3.80;;;2.10;;
76065;SDS011;64763;48.928;8.474;2023-11-21T05:39:48;5.10;;;1.90;;
76065;SDS011;64763;48.928;8.474;2023-11-21T05:42:14;3.00;;;1.83;;
76065;SDS011;64763;48.928;8.474;2023-11-21T05:44:40;4.85;;;2.15;;
76065;SDS011;64763;48.928;8.474;2023-11-21T05:47:07;4.53;;;1.92;;
76065;SDS011;64763;48.928;8.474;2023-11-21T05:49:32;3.42;;;2.10;;
76065;SDS011;64763;48.928;8.474;2023-11-21T05:51:58;4.78;;;1.83;;
76065;SDS011;64763;48.928;8.474;2023-11-21T05:54:24;2.58;;;1.70;;
76065;SDS011;64763;48.928;8.474;2023-11-21T05:56:50;6.25;;;2.03;;
76065;SDS011;64763;48.928;8.474;2023-11-21T05:59:15;6.20;;;2.47;;
76065;SDS011;64763;48.928;8.474;2023-11-21T06:01:41;3.65;;;2.10;;
76065;SDS011;64763;48.928;8.474;2023-11-21T06:04:06;2.72;;;1.67;;
76065;SDS011;64763;48.928;8.474;2023-11-21T06:06:34;3.17;;;1.73;;
76065;SDS011;64763;48.928;8.474;2023-11-21T06:08:59;3.85;;;1.77;;
76065;SDS011;64763;48.928;8.474;2023-11-21T06:11:24;5.40;;;2.13;;
76065;SDS011;64763;48.928;8.474;2023-11-21T06:13:50;2.78;;;1.73;;
76065;SDS011;64763;48.928;8.474;2023-11-21T06:16:15;2.88;;;1.60;;
76065;SDS011;64763;48.928;8.474;2023-11-21T06:18:43;3.78;;;2.30;;
76065;SDS011;64763;48.928;8.474;2023-11-21T06:21:10;2.65;;;1.73;;
76065;SDS011;64763;48.928;8.474;2023-11-21T06:23:35;2.67;;;1.80;;
76065;SDS011;64763;48.928;8.474;2023-11-21T06:26:01;3.80;;;2.15;;
76065;SDS011;64763;48.928;8.474;2023-11-21T06:28:26;2.88;;;1.77;;
76065;SDS011;64763;48.928;8.474;2023-11-21T06:30:51;3.05;;;1.67;;
76065;SDS011;64763;48.928;8.474;2023-11-21T06:33:18;3.22;;;1.75;;
76065;SDS011;64763;48.928;8.474;2023-11-21T06:35:43;2.70;;;1.65;;
76065;SDS011;64763;48.928;8.474;2023-11-21T06:38:09;3.45;;;1.23;;
76065;SDS011;64763;48.928;8.474;2023-11-21T06:40:35;2.80;;;1.40;;
76065;SDS011;64763;48.928;8.474;2023-11-21T06:43:00;2.05;;;1.33;;
76065;SDS011;64763;48.928;8.474;2023-11-21T06:45:26;3.20;;;1.55;;
76065;SDS011;64763;48.928;8.474;2023-11-21T06:47:51;2.50;;;1.25;;
76065;SDS011;64763;48.928;8.474;2023-11-21T06:50:17;2.63;;;1.60;;
76065;SDS011;64763;48.928;8.474;2023-11-21T06:52:42;2.47;;;1.27;;
76065;SDS011;64763;48.928;8.474;2023-11-21T06:55:08;2.05;;;1.48;;
76065;SDS011;64763;48.928;8.474;2023-11-21T06:57:34;4.20;;;1.65;;
76065;SDS011;64763;48.928;8.474;2023-11-21T07:00:00;2.65;;;1.40;;
76065;SDS011;64763;48.928;8.474;2023-11-21T07:02:25;2.63;;;1.30;;
76065;SDS011;64763;48.928;8.474;2023-11-21T07:04:51;3.03;;;1.80;;
76065;SDS011;64763;48.928;8.474;2023-11-21T07:07:16;2.42;;;1.63;;
76065;SDS011;64763;48.928;8.474;2023-11-21T07:09:43;3.17;;;1.95;;
76065;SDS011;64763;48.928;8.474;2023-11-21T07:12:08;3.22;;;1.73;;
76065;SDS011;64763;48.928;8.474;2023-11-21T07:14:34;3.40;;;2.03;;
76065;SDS011;64763;48.928;8.474;2023-11-21T07:16:59;3.55;;;2.05;;
76065;SDS011;64763;48.928;8.474;2023-11-21T07:19:25;2.90;;;1.77;;
76065;SDS011;64763;48.928;8.474;2023-11-21T07:21:50;3.55;;;1.95;;
76065;SDS011;64763;48.928;8.474;2023-11-21T07:24:16;3.25;;;2.08;;
76065;SDS011;64763;48.928;8.474;2023-11-21T07:26:42;3.33;;;2.20;;
76065;SDS011;64763;48.928;8.474;2023-11-21T07:29:07;4.30;;;2.28;;
76065;SDS011;64763;48.928;8.474;2023-11-21T07:31:33;4.40;;;2.20;;
76065;SDS011;64763;48.928;8.474;2023-11-21T07:33:59;5.28;;;2.33;;
76065;SDS011;64763;48.928;8.474;2023-11-21T07:36:25;4.35;;;2.47;;
76065;SDS011;64763;48.928;8.474;2023-11-21T07:38:51;7.13;;;3.20;;
76065;SDS011;64763;48.928;8.474;2023-11-21T07:41:16;4.00;;;2.28;;
76065;SDS011;64763;48.928;8.474;2023-11-21T07:43:43;5.10;;;2.70;;
76065;SDS011;64763;48.928;8.474;2023-11-21T07:46:09;4.50;;;2.55;;
76065;SDS011;64763;48.928;8.474;2023-11-21T07:48:35;4.78;;;2.55;;
76065;SDS011;64763;48.928;8.474;2023-11-21T07:51:01;4.18;;;2.72;;
76065;SDS011;64763;48.928;8.474;2023-11-21T07:53:28;6.70;;;2.80;;
76065;SDS011;64763;48.928;8.474;2023-11-21T07:55:58;5.25;;;2.72;;
76065;SDS011;64763;48.928;8.474;2023-11-21T07:58:28;3.55;;;2.22;;
76065;SDS011;64763;48.928;8.474;2023-11-21T08:00:53;4.30;;;2.33;;
76065;SDS011;64763;48.928;8.474;2023-11-21T08:03:19;2.83;;;1.80;;
76065;SDS011;64763;48.928;8.474;2023-11-21T08:05:44;5.88;;;1.70;;
76065;SDS011;64763;48.928;8.474;2023-11-21T08:08:09;3.92;;;2.03;;
76065;SDS011;64763;48.928;8.474;2023-11-21T08:10:35;3.47;;;1.98;;
76065;SDS011;64763;48.928;8.474;2023-11-21T08:13:04;3.70;;;1.98;;
76065;SDS011;64763;48.928;8.474;2023-11-21T08:15:29;3.30;;;2.13;;
76065;SDS011;64763;48.928;8.474;2023-11-21T08:17:57;2.40;;;1.65;;
76065;SDS011;64763;48.928;8.474;2023-11-21T08:20:23;3.30;;;1.92;;
76065;SDS011;64763;48.928;8.474;2023-11-21T08:22:50;2.70;;;1.70;;
76065;SDS011;64763;48.928;8.474;2023-11-21T08:25:19;2.95;;;1.95;;
76065;SDS011;64763;48.928;8.474;2023-11-21T08:27:45;2.67;;;1.63;;
76065;SDS011;64763;48.928;8.474;2023-11-21T08:30:11;2.47;;;1.50;;
76065;SDS011;64763;48.928;8.474;2023-11-21T08:32:38;2.28;;;1.40;;
76065;SDS011;64763;48.928;8.474;2023-11-21T08:35:04;2.55;;;1.10;;
76065;SDS011;64763;48.928;8.474;2023-11-21T08:37:31;5.32;;;1.40;;
76065;SDS011;64763;48.928;8.474;2023-11-21T08:39:58;1.50;;;1.10;;
76065;SDS011;64763;48.928;8.474;2023-11-21T08:42:27;2.97;;;1.15;;
76065;SDS011;64763;48.928;8.474;2023-11-21T08:44:54;2.90;;;1.83;;
76065;SDS011;64763;48.928;8.474;2023-11-21T08:47:22;2.72;;;1.70;;
76065;SDS011;64763;48.928;8.474;2023-11-21T08:49:49;2.60;;;1.67;;
76065;SDS011;64763;48.928;8.474;2023-11-21T08:52:18;2.85;;;1.88;;
76065;SDS011;64763;48.928;8.474;2023-11-21T08:54:43;3.42;;;1.45;;
76065;SDS011;64763;48.928;8.474;2023-11-21T08:57:10;2.40;;;1.60;;
76065;SDS011;64763;48.928;8.474;2023-11-21T08:59:35;3.58;;;2.30;;
76065;SDS011;64763;48.928;8.474;2023-11-21T09:02:01;2.97;;;1.60;;
76065;SDS011;64763;48.928;8.474;2023-11-21T09:04:26;3.42;;;2.00;;
76065;SDS011;64763;48.928;8.474;2023-11-21T09:06:52;11.80;;;3.33;;
76065;SDS011;64763;48.928;8.474;2023-11-21T09:09:17;5.97;;;3.40;;
76065;SDS011;64763;48.928;8.474;2023-11-21T09:11:44;5.55;;;3.42;;
76065;SDS011;64763;48.928;8.474;2023-11-21T09:14:10;5.50;;;3.20;;
76065;SDS011;64763;48.928;8.474;2023-11-21T09:16:37;6.47;;;3.70;;
76065;SDS011;64763;48.928;8.474;2023-11-21T09:19:03;6.65;;;3.72;;
76065;SDS011;64763;48.928;8.474;2023-11-21T09:21:30;8.52;;;4.53;;
76065;SDS011;64763;48.928;8.474;2023-11-21T09:23:55;8.90;;;4.88;;
76065;SDS011;64763;48.928;8.474;2023-11-21T09:26:21;10.70;;;5.72;;
76065;SDS011;64763;48.928;8.474;2023-11-21T09:28:46;12.20;;;5.70;;
76065;SDS011;64763;48.928;8.474;2023-11-21T09:31:13;12.18;;;6.20;;
76065;SDS011;64763;48.928;8.474;2023-11-21T09:33:40;12.43;;;6.68;;
76065;SDS011;64763;48.928;8.474;2023-11-21T09:36:10;14.02;;;6.80;;
76065;SDS011;64763;48.928;8.474;2023-11-21T09:38:36;16.50;;;7.75;;
76065;SDS011;64763;48.928;8.474;2023-11-21T09:41:04;14.05;;;6.78;;
76065;SDS011;64763;48.928;8.474;2023-11-21T09:43:32;16.25;;;7.68;;
76065;SDS011;64763;48.928;8.474;2023-11-21T09:45:59;13.30;;;7.28;;
76065;SDS011;64763;48.928;8.474;2023-11-21T09:48:25;14.57;;;7.10;;
76065;SDS011;64763;48.928;8.474;2023-11-21T09:50:51;15.50;;;7.20;;
76065;SDS011;64763;48.928;8.474;2023-11-21T09:53:21;16.35;;;7.40;;
76065;SDS011;64763;48.928;8.474;2023-11-21T09:55:52;15.82;;;8.07;;
76065;SDS011;64763;48.928;8.474;2023-11-21T09:58:18;17.80;;;7.43;;
76065;SDS011;64763;48.928;8.474;2023-11-21T10:00:45;17.90;;;8.40;;
76065;SDS011;64763;48.928;8.474;2023-11-21T10:03:12;19.15;;;8.63;;
76065;SDS011;64763;48.928;8.474;2023-11-21T10:05:38;19.50;;;8.70;;
76065;SDS011;64763;48.928;8.474;2023-11-21T10:08:09;24.85;;;9.55;;
76065;SDS011;64763;48.928;8.474;2023-11-21T10:10:45;20.90;;;8.70;;
76065;SDS011;64763;48.928;8.474;2023-11-21T10:13:13;18.75;;;8.82;;
76065;SDS011;64763;48.928;8.474;2023-11-21T10:15:41;16.83;;;8.23;;
76065;SDS011;64763;48.928;8.474;2023-11-21T10:18:12;22.63;;;9.20;;
76065;SDS011;64763;48.928;8.474;2023-11-21T10:20:40;20.48;;;10.00;;
76065;SDS011;64763;48.928;8.474;2023-11-21T10:23:07;22.10;;;9.27;;
76065;SDS011;64763;48.928;8.474;2023-11-21T10:25:36;19.60;;;8.35;;
76065;SDS011;64763;48.928;8.474;2023-11-21T10:28:04;22.48;;;9.40;;
76065;SDS011;64763;48.928;8.474;2023-11-21T10:30:33;22.10;;;9.55;;
76065;SDS011;64763;48.928;8.474;2023-11-21T10:33:02;16.13;;;8.20;;
76065;SDS011;64763;48.928;8.474;2023-11-21T10:35:47;18.13;;;9.23;;
76065;SDS011;64763;48.928;8.474;2023-11-21T10:38:16;19.23;;;8.85;;
76065;SDS011;64763;48.928;8.474;2023-11-21T10:40:43;16.45;;;8.48;;
76065;SDS011;64763;48.928;8.474;2023-11-21T10:43:09;18.55;;;9.38;;
76065;SDS011;64763;48.928;8.474;2023-11-21T10:45:36;17.17;;;8.10;;
76065;SDS011;64763;48.928;8.474;2023-11-21T10:48:05;17.48;;;8.15;;
76065;SDS011;64763;48.928;8.474;2023-11-21T10:50:33;20.55;;;8.90;;
76065;SDS011;64763;48.928;8.474;2023-11-21T10:53:01;20.70;;;8.85;;
76065;SDS011;64763;48.928;8.474;2023-11-21T10:55:27;19.08;;;9.45;;
76065;SDS011;64763;48.928;8.474;2023-11-21T10:57:53;23.60;;;9.68;;
76065;SDS011;64763;48.928;8.474;2023-11-21T11:00:19;18.02;;;8.45;;
76065;SDS011;64763;48.928;8.474;2023-11-21T11:02:56;18.67;;;7.93;;
76065;SDS011;64763;48.928;8.474;2023-11-21T11:05:24;17.10;;;7.70;;
76065;SDS011;64763;48.928;8.474;2023-11-21T11:07:51;16.92;;;8.52;;
76065;SDS011;64763;48.928;8.474;2023-11-21T11:10:24;20.50;;;8.75;;
76065;SDS011;64763;48.928;8.474;2023-11-21T11:12:51;17.42;;;8.18;;
76065;SDS011;64763;48.928;8.474;2023-11-21T11:15:18;18.25;;;8.68;;
76065;SDS011;64763;48.928;8.474;2023-11-21T11:17:45;15.25;;;7.57;;
76065;SDS011;64763;48.928;8.474;2023-11-21T11:20:12;19.63;;;9.27;;
76065;SDS011;64763;48.928;8.474;2023-11-21T11:22:48;18.42;;;8.02;;
76065;SDS011;64763;48.928;8.474;2023-11-21T11:34:29;16.73;;;7.78;;
76065;SDS011;64763;48.928;8.474;2023-11-21T11:39:29;16.33;;;8.25;;
76065;SDS011;64763;48.928;8.474;2023-11-21T11:42:16;14.40;;;6.88;;
76065;SDS011;64763;48.928;8.474;2023-11-21T11:47:17;11.77;;;6.82;;
76065;SDS011;64763;48.928;8.474;2023-11-21T11:49:56;11.52;;;6.47;;
76065;SDS011;64763;48.928;8.474;2023-11-21T11:52:35;13.25;;;6.88;;
76065;SDS011;64763;48.928;8.474;2023-11-21T11:55:01;12.68;;;6.45;;
76065;SDS011;64763;48.928;8.474;2023-11-21T11:57:31;11.23;;;6.47;;
76065;SDS011;64763;48.928;8.474;2023-11-21T12:00:15;11.25;;;7.00;;
76065;SDS011;64763;48.928;8.474;2023-11-21T12:02:57;14.15;;;7.68;;
76065;SDS011;64763;48.928;8.474;2023-11-21T12:05:24;12.70;;;7.18;;
76065;SDS011;64763;48.928;8.474;2023-11-21T12:07:56;11.32;;;6.50;;
76065;SDS011;64763;48.928;8.474;2023-11-21T12:10:29;13.40;;;7.18;;
76065;SDS011;64763;48.928;8.474;2023-11-21T12:12:57;11.05;;;6.05;;
76065;SDS011;64763;48.928;8.474;2023-11-21T12:15:24;9.10;;;5.68;;
76065;SDS011;64763;48.928;8.474;2023-11-21T12:17:50;10.80;;;6.03;;
76065;SDS011;64763;48.928;8.474;2023-11-21T12:20:19;10.50;;;6.00;;
76065;SDS011;64763;48.928;8.474;2023-11-21T12:22:53;9.38;;;5.57;;
76065;SDS011;64763;48.928;8.474;2023-11-21T12:25:20;12.93;;;6.90;;
76065;SDS011;64763;48.928;8.474;2023-11-21T12:27:46;13.10;;;7.07;;
76065;SDS011;64763;48.928;8.474;2023-11-21T12:30:16;13.48;;;7.57;;
76065;SDS011;64763;48.928;8.474;2023-11-21T12:32:43;12.70;;;7.10;;
76065;SDS011;64763;48.928;8.474;2023-11-21T12:35:11;13.65;;;7.78;;
76065;SDS011;64763;48.928;8.474;2023-11-21T12:37:37;13.65;;;6.95;;
76065;SDS011;64763;48.928;8.474;2023-11-21T12:40:04;12.82;;;7.60;;
76065;SDS011;64763;48.928;8.474;2023-11-21T12:42:31;13.18;;;7.57;;
76065;SDS011;64763;48.928;8.474;2023-11-21T12:47:43;12.85;;;6.72;;
76065;SDS011;64763;48.928;8.474;2023-11-21T12:50:10;15.63;;;7.13;;
76065;SDS011;64763;48.928;8.474;2023-11-21T12:52:42;13.73;;;7.10;;
76065;SDS011;64763;48.928;8.474;2023-11-21T12:55:17;12.82;;;7.22;;
76065;SDS011;64763;48.928;8.474;2023-11-21T12:57:47;10.80;;;6.78;;
76065;SDS011;64763;48.928;8.474;2023-11-21T13:00:16;10.25;;;5.82;;
76065;SDS011;64763;48.928;8.474;2023-11-21T13:02:55;11.70;;;6.57;;
76065;SDS011;64763;48.928;8.474;2023-11-21T13:05:27;12.38;;;6.72;;
76065;SDS011;64763;48.928;8.474;2023-11-21T13:07:55;12.07;;;6.32;;
76065;SDS011;64763;48.928;8.474;2023-11-21T13:10:23;11.60;;;6.07;;
76065;SDS011;64763;48.928;8.474;2023-11-21T13:12:56;12.70;;;6.97;;
76065;SDS011;64763;48.928;8.474;2023-11-21T13:15:25;14.82;;;7.68;;
76065;SDS011;64763;48.928;8.474;2023-11-21T13:17:52;13.68;;;7.57;;
76065;SDS011;64763;48.928;8.474;2023-11-21T13:20:18;19.23;;;8.57;;
76065;SDS011;64763;48.928;8.474;2023-11-21T13:22:48;19.05;;;8.10;;
76065;SDS011;64763;48.928;8.474;2023-11-21T13:25:18;13.57;;;8.20;;
76065;SDS011;64763;48.928;8.474;2023-11-21T13:27:44;14.90;;;9.00;;
76065;SDS011;64763;48.928;8.474;2023-11-21T13:30:11;14.93;;;8.45;;
76065;SDS011;64763;48.928;8.474;2023-11-21T13:32:48;14.75;;;7.50;;
76065;SDS011;64763;48.928;8.474;2023-11-21T13:35:16;16.23;;;7.43;;
76065;SDS011;64763;48.928;8.474;2023-11-21T13:38:05;13.63;;;6.97;;
76065;SDS011;64763;48.928;8.474;2023-11-21T13:40:34;15.73;;;7.70;;
76065;SDS011;64763;48.928;8.474;2023-11-21T13:43:07;14.95;;;8.02;;
76065;SDS011;64763;48.928;8.474;2023-11-21T13:45:35;14.48;;;7.63;;
76065;SDS011;64763;48.928;8.474;2023-11-21T13:48:06;13.20;;;6.75;;
76065;SDS011;64763;48.928;8.474;2023-11-21T13:50:38;13.43;;;7.20;;
76065;SDS011;64763;48.928;8.474;2023-11-21T13:53:11;13.88;;;7.95;;
76065;SDS011;64763;48.928;8.474;2023-11-21T13:55:46;15.20;;;8.35;;
76065;SDS011;64763;48.928;8.474;2023-11-21T13:58:12;13.85;;;7.70;;
76065;SDS011;64763;48.928;8.474;2023-11-21T14:00:43;12.07;;;7.07;;
76065;SDS011;64763;48.928;8.474;2023-11-21T14:03:17;13.80;;;6.82;;
76065;SDS011;64763;48.928;8.474;2023-11-21T14:05:46;15.13;;;7.43;;
76065;SDS011;64763;48.928;8.474;2023-11-21T14:08:18;12.15;;;7.13;;
76065;SDS011;64763;48.928;8.474;2023-11-21T14:10:46;12.85;;;7.13;;
76065;SDS011;64763;48.928;8.474;2023-11-21T14:13:22;13.48;;;7.00;;
76065;SDS011;64763;48.928;8.474;2023-11-21T14:15:48;14.38;;;7.53;;
76065;SDS011;64763;48.928;8.474;2023-11-21T14:18:16;13.15;;;7.18;;
76065;SDS011;64763;48.928;8.474;2023-11-21T14:20:42;12.95;;;6.93;;
76065;SDS011;64763;48.928;8.474;2023-11-21T14:23:07;10.38;;;6.25;;
76065;SDS011;64763;48.928;8.474;2023-11-21T14:25:33;8.43;;;5.82;;
76065;SDS011;64763;48.928;8.474;2023-11-21T14:28:02;12.45;;;6.22;;
76065;SDS011;64763;48.928;8.474;2023-11-21T14:30:28;11.00;;;5.82;;
76065;SDS011;64763;48.928;8.474;2023-11-21T14:32:57;9.45;;;5.47;;
76065;SDS011;64763;48.928;8.474;2023-11-21T14:35:26;8.95;;;5.40;;
76065;SDS011;64763;48.928;8.474;2023-11-21T14:37:51;10.05;;;5.47;;
76065;SDS011;64763;48.928;8.474;2023-11-21T14:40:17;12.10;;;5.63;;
76065;SDS011;64763;48.928;8.474;2023-11-21T14:42:47;7.53;;;4.72;;
76065;SDS011;64763;48.928;8.474;2023-11-21T14:45:13;8.75;;;4.68;;
76065;SDS011;64763;48.928;8.474;2023-11-21T14:47:44;11.20;;;5.72;;
76065;SDS011;64763;48.928;8.474;2023-11-21T14:50:16;9.13;;;5.10;;
76065;SDS011;64763;48.928;8.474;2023-11-21T14:53:04;9.13;;;4.60;;
76065;SDS011;64763;48.928;8.474;2023-11-21T14:55:31;9.05;;;5.25;;
76065;SDS011;64763;48.928;8.474;2023-11-21T14:58:04;9.13;;;5.63;;
76065;SDS011;64763;48.928;8.474;2023-11-21T15:00:30;9.65;;;4.80;;